Time;durP1;ratioP1;P1;durP2;ratioP2;P2;SDS_P1;SDS_P2;PMS_P1;PMS_P2;Temp;Humidity;BMP_temperature;BMP_pressure;BME280_temperature;BME280_humidity;BME280_pressure;Samples;Min_cycle;Max_cycle;Signal;HPM_P1;HPM_P2
2023/03/26 00:01:49;;;;;;;;;1.00;1.00;;;;;20.66;53.64;99415.10;109285;1256;20200;-73
2023/03/26 00:04:18;;;;;;;;;1.00;1.00;;;;;20.65;53.92;99410.38;109307;1261;19365;-74
2023/03/26 00:06:47;;;;;;;;;1.00;1.00;;;;;20.65;53.65;99412.51;109309;1269;20873;-73
2023/03/26 00:09:15;;;;;;;;;1.00;1.00;;;;;20.65;53.63;99407.16;109304;1254;21541;-73
2023/03/26 00:11:42;;;;;;;;;1.00;1.00;;;;;20.65;53.58;99405.18;109309;1254;19224;-73
2023/03/26 00:14:12;;;;;;;;;2.00;2.00;;;;;20.66;53.73;99406.48;109313;1269;19445;-73
2023/03/26 00:16:40;;;;;;;;;1.00;1.00;;;;;20.65;53.66;99408.23;109289;1269;20171;-71
2023/03/26 00:19:07;;;;;;;;;1.00;1.00;;;;;20.64;53.84;99409.08;109280;1269;19216;-72
2023/03/26 00:21:35;;;;;;;;;1.00;1.00;;;;;20.64;53.78;99410.50;109257;1269;19374;-72
2023/03/26 00:24:03;;;;;;;;;1.00;1.00;;;;;20.64;53.71;99409.23;109282;1269;20156;-72
2023/03/26 00:26:30;;;;;;;;;1.00;1.00;;;;;20.65;53.86;99408.07;109256;1254;19608;-73
2023/03/26 00:28:59;;;;;;;;;2.00;2.00;;;;;20.64;53.66;99401.83;109244;1269;19397;-73
2023/03/26 00:31:26;;;;;;;;;1.00;1.00;;;;;20.64;53.75;99396.93;109311;1256;21637;-73
2023/03/26 00:33:54;;;;;;;;;1.00;1.00;;;;;20.64;53.58;99393.04;109256;1269;19182;-72
2023/03/26 00:36:21;;;;;;;;;1.00;1.00;;;;;20.64;53.73;99396.42;109280;1269;20753;-73
2023/03/26 00:38:51;;;;;;;;;1.00;1.00;;;;;20.64;53.64;99394.34;109299;1256;20171;-73
2023/03/26 00:41:24;;;;;;;;;1.00;1.00;;;;;20.64;53.58;99389.31;109287;1254;19457;-73
2023/03/26 00:43:52;;;;;;;;;1.00;1.00;;;;;20.64;53.74;99385.83;109295;1269;19475;-72
2023/03/26 00:46:19;;;;;;;;;1.00;1.00;;;;;20.63;53.72;99386.11;109319;1256;21502;-73
2023/03/26 00:48:46;;;;;;;;;1.00;1.00;;;;;20.63;53.74;99389.08;109331;1254;19159;-73
2023/03/26 00:51:15;;;;;;;;;1.00;1.00;;;;;20.65;53.82;99392.36;109284;1264;19396;-72
2023/03/26 00:53:42;;;;;;;;;1.00;1.00;;;;;20.65;53.68;99391.15;109324;1269;21651;-73
2023/03/26 00:56:09;;;;;;;;;1.00;1.00;;;;;20.64;53.95;99387.63;109282;1269;19233;-73
2023/03/26 00:58:37;;;;;;;;;1.00;1.00;;;;;20.64;53.67;99388.52;109396;1269;19555;-73
2023/03/26 01:01:04;;;;;;;;;1.00;1.00;;;;;20.64;53.82;99384.40;109365;1255;21643;-73
2023/03/26 01:03:32;;;;;;;;;1.00;1.00;;;;;20.63;53.72;99387.54;109361;1269;19245;-72
2023/03/26 01:06:03;;;;;;;;;1.00;1.00;;;;;20.64;53.71;99383.70;109378;1269;20712;-73
2023/03/26 01:08:30;;;;;;;;;1.00;1.00;;;;;20.64;53.81;99384.20;109392;1254;23656;-73
2023/03/26 01:11:04;;;;;;;;;1.00;1.00;;;;;20.64;53.80;99379.84;109382;1254;19584;-73
2023/03/26 01:13:31;;;;;;;;;1.00;1.00;;;;;20.64;53.67;99379.84;109272;1265;21307;-73
2023/03/26 01:16:00;;;;;;;;;1.00;1.00;;;;;20.64;53.59;99380.89;109259;1269;20231;-73
2023/03/26 01:18:28;;;;;;;;;1.00;1.00;;;;;20.64;53.83;99378.25;109301;1254;19707;-73
2023/03/26 01:21:03;;;;;;;;;1.00;1.00;;;;;20.64;53.80;99372.77;109276;1269;19501;-73
2023/03/26 01:23:31;;;;;;;;;1.00;1.00;;;;;20.64;53.70;99374.05;109292;1256;23157;-73
2023/03/26 01:25:58;;;;;;;;;1.00;1.00;;;;;20.64;53.74;99374.44;109330;1269;19158;-73
2023/03/26 01:28:25;;;;;;;;;1.00;1.00;;;;;20.64;53.75;99370.27;109256;1269;19369;-73
2023/03/26 01:30:57;;;;;;;;;1.00;1.00;;;;;20.64;53.80;99367.87;109269;1254;21652;-73
2023/03/26 01:33:28;;;;;;;;;1.00;1.00;;;;;20.63;53.89;99369.45;109292;1254;20788;-73
2023/03/26 01:35:56;;;;;;;;;1.00;1.00;;;;;20.64;53.83;99371.01;109267;1256;20843;-73
2023/03/26 01:38:23;;;;;;;;;1.00;1.00;;;;;20.63;53.87;99370.02;109275;1263;20194;-73
2023/03/26 01:40:50;;;;;;;;;1.00;1.00;;;;;20.62;53.77;99365.38;109311;1256;22906;-73
2023/03/26 01:43:17;;;;;;;;;1.00;1.00;;;;;20.63;53.89;99362.95;109307;1254;20786;-73
2023/03/26 01:45:45;;;;;;;;;1.00;1.00;;;;;20.64;53.78;99362.66;109325;1256;21965;-73
2023/03/26 01:48:12;;;;;;;;;1.00;1.00;;;;;20.63;53.60;99360.23;109273;1256;19666;-73
2023/03/26 01:50:40;;;;;;;;;1.00;1.00;;;;;20.63;53.82;99358.05;109292;1254;20781;-73
2023/03/26 01:53:07;;;;;;;;;1.00;1.00;;;;;20.63;53.62;99359.30;109258;1256;23829;-73
2023/03/26 01:55:35;;;;;;;;;1.00;1.00;;;;;20.62;53.68;99358.46;109297;1254;22670;-73
2023/03/26 01:58:02;;;;;;;;;1.00;1.00;;;;;20.62;53.77;99354.86;109249;1269;19512;-73
2023/03/26 02:00:29;;;;;;;;;1.00;1.00;;;;;20.62;53.75;99356.21;109294;1254;23749;-73
2023/03/26 02:02:57;;;;;;;;;1.00;1.00;;;;;20.63;53.57;99357.29;109277;1256;19702;-73
2023/03/26 02:05:25;;;;;;;;;1.00;1.00;;;;;20.62;53.88;99350.72;109261;1256;24317;-72
2023/03/26 02:07:52;;;;;;;;;1.00;1.00;;;;;20.63;53.62;99348.38;109256;1256;21682;-73
2023/03/26 02:10:20;;;;;;;;;1.00;1.00;;;;;20.62;53.51;99349.63;109260;1254;22547;-73
2023/03/26 02:12:47;;;;;;;;;1.00;1.00;;;;;20.61;53.78;99347.04;109320;1269;19358;-73
2023/03/26 02:15:15;;;;;;;;;1.00;1.00;;;;;20.62;53.72;99346.91;109324;1254;21601;-73
2023/03/26 02:17:42;;;;;;;;;1.00;1.00;;;;;20.63;53.50;99348.75;109305;1263;22163;-73
2023/03/26 02:20:09;;;;;;;;;;;;;;;20.63;53.68;99343.11;109325;1254;20817;-73
2023/03/26 02:22:39;;;;;;;;;1.00;1.00;;;;;20.64;53.77;99341.09;109317;1254;21751;-72
2023/03/26 02:25:07;;;;;;;;;1.00;1.00;;;;;20.62;53.48;99340.50;109312;1254;19343;-73
2023/03/26 02:27:34;;;;;;;;;1.00;1.00;;;;;20.62;53.58;99334.76;109279;1256;20753;-73
2023/03/26 02:30:01;;;;;;;;;1.00;1.00;;;;;20.61;53.63;99333.55;109233;1269;22611;-73
2023/03/26 02:32:29;;;;;;;;;1.00;1.00;;;;;20.61;53.69;99333.55;109261;1256;19644;-73
2023/03/26 02:34:56;;;;;;;;;1.00;1.00;;;;;20.61;53.67;99329.98;109309;1269;19511;-73
2023/03/26 02:37:23;;;;;;;;;1.00;1.00;;;;;20.61;53.65;99335.77;109297;1269;20211;-73
2023/03/26 02:39:51;;;;;;;;;1.00;1.00;;;;;20.62;53.90;99331.11;109286;1254;19637;-73
2023/03/26 02:42:18;;;;;;;;;1.00;1.00;;;;;20.62;53.67;99331.71;109292;1256;23047;-73
2023/03/26 02:44:45;;;;;;;;;1.00;1.00;;;;;20.61;53.79;99332.67;109296;1256;21524;-73
2023/03/26 02:47:13;;;;;;;;;1.00;1.00;;;;;20.62;53.91;99333.00;109264;1256;19700;-73
2023/03/26 02:49:40;;;;;;;;;2.00;1.00;;;;;20.62;53.69;99332.25;109260;1254;22874;-72
2023/03/26 02:52:07;;;;;;;;;1.00;1.00;;;;;20.62;53.70;99326.81;109290;1264;20172;-73
2023/03/26 02:54:35;;;;;;;;;1.00;1.00;;;;;20.61;53.52;99327.61;109290;1269;19186;-73
2023/03/26 02:57:02;;;;;;;;;1.00;1.00;;;;;20.62;53.68;99323.92;109284;1256;20962;-72
2023/03/26 02:59:30;;;;;;;;;1.00;1.00;;;;;20.62;53.81;99317.67;109231;1269;20180;-73
2023/03/26 03:01:57;;;;;;;;;1.00;1.00;;;;;20.61;53.53;99317.85;109278;1269;19094;-73
2023/03/26 03:04:24;;;;;;;;;1.00;1.00;;;;;20.61;53.65;99317.69;109287;1269;19396;-73
2023/03/26 03:06:56;;;;;;;;;1.00;1.00;;;;;20.61;53.68;99316.38;109300;1269;20193;-73
2023/03/26 03:09:23;;;;;;;;;1.00;1.00;;;;;20.61;53.82;99315.09;109266;1269;19219;-73
2023/03/26 03:11:51;;;;;;;;;1.00;1.00;;;;;20.62;53.57;99315.88;109319;1254;23681;-73
2023/03/26 03:14:19;;;;;;;;;1.00;1.00;;;;;20.61;53.80;99309.27;109320;1254;20047;-73
2023/03/26 03:16:46;;;;;;;;;1.00;1.00;;;;;20.61;53.83;99313.24;109260;1256;19238;-73
2023/03/26 03:19:13;;;;;;;;;1.67;1.67;;;;;20.62;53.63;99312.39;109289;1269;19758;-73
2023/03/26 03:21:41;;;;;;;;;1.00;1.00;;;;;20.62;53.67;99309.22;109299;1256;21775;-73
2023/03/26 03:24:08;;;;;;;;;1.00;1.00;;;;;20.62;53.60;99309.05;109277;1269;19179;-72
2023/03/26 03:26:36;;;;;;;;;1.00;1.00;;;;;20.62;53.49;99308.34;109277;1254;23040;-73
2023/03/26 03:29:03;;;;;;;;;1.00;1.00;;;;;20.61;53.76;99307.17;109242;1269;20113;-73
2023/03/26 03:31:31;;;;;;;;;1.00;1.00;;;;;20.61;53.82;99305.45;109296;1254;23407;-72
2023/03/26 03:33:58;;;;;;;;;1.00;1.00;;;;;20.60;53.72;99307.80;109272;1254;20839;-73
2023/03/26 03:36:29;;;;;;;;;1.00;1.00;;;;;20.61;53.78;99306.80;109268;1254;22795;-73
2023/03/26 03:39:01;;;;;;;;;1.00;1.00;;;;;20.61;53.53;99309.97;109249;1256;19597;-72
2023/03/26 03:41:28;;;;;;;;;1.00;1.00;;;;;20.61;53.58;99308.34;109354;1254;20696;-73
2023/03/26 03:43:58;;;;;;;;;1.00;1.00;;;;;20.61;53.69;99309.30;109273;1254;21464;-73
2023/03/26 03:46:25;;;;;;;;;1.00;1.00;;;;;20.61;53.74;99304.28;109263;1269;19317;-73
2023/03/26 03:48:53;;;;;;;;;1.00;1.00;;;;;20.60;53.81;99310.86;109312;1264;19561;-72
2023/03/26 03:51:20;;;;;;;;;2.00;1.00;;;;;20.60;53.69;99311.36;109270;1263;21636;-72
2023/03/26 03:53:48;;;;;;;;;1.00;1.00;;;;;20.60;53.64;99308.64;109312;1255;20944;-73
2023/03/26 03:56:17;;;;;;;;;1.00;1.00;;;;;20.60;53.54;99304.03;109339;1254;23726;-73
2023/03/26 03:58:46;;;;;;;;;1.00;1.00;;;;;20.60;53.79;99307.67;109406;1269;23107;-73
2023/03/26 04:01:14;;;;;;;;;1.67;1.00;;;;;20.60;53.76;99306.17;109371;1256;19587;-73
2023/03/26 04:03:44;;;;;;;;;1.00;1.00;;;;;20.60;53.64;99298.88;109356;1269;22533;-73
2023/03/26 04:06:12;;;;;;;;;1.00;1.00;;;;;20.61;53.58;99302.83;109342;1254;22885;-73
2023/03/26 04:08:39;;;;;;;;;1.00;1.00;;;;;20.61;53.54;99299.34;109330;1255;19606;-73
2023/03/26 04:11:07;;;;;;;;;1.00;1.00;;;;;20.61;53.50;99305.70;109306;1254;20724;-73
2023/03/26 04:13:34;;;;;;;;;1.00;1.00;;;;;20.62;53.66;99302.27;109282;1269;21619;-73
2023/03/26 04:16:01;;;;;;;;;1.00;1.00;;;;;20.60;53.87;99299.09;109265;1263;19542;-73
2023/03/26 04:18:31;;;;;;;;;1.00;1.00;;;;;20.61;53.67;99294.70;109263;1269;19422;-73
2023/03/26 04:21:01;;;;;;;;;1.00;1.00;;;;;20.61;53.49;99296.99;109273;1269;20202;-73
2023/03/26 04:23:29;;;;;;;;;1.00;1.00;;;;;20.61;53.65;99298.67;109295;1254;19670;-72
2023/03/26 04:25:56;;;;;;;;;1.00;1.00;;;;;20.61;53.49;99295.74;109258;1256;20820;-73
2023/03/26 04:28:25;;;;;;;;;1.00;1.00;;;;;20.60;53.57;99295.70;109284;1263;20061;-73
2023/03/26 04:30:53;;;;;;;;;2.00;1.00;;;;;20.60;53.45;99294.83;109289;1256;19794;-73
2023/03/26 04:33:20;;;;;;;;;1.00;1.00;;;;;20.59;53.66;99291.23;109273;1269;19385;-73
2023/03/26 04:35:48;;;;;;;;;1.00;1.00;;;;;20.60;53.54;99293.31;109312;1254;21774;-73
2023/03/26 04:38:17;;;;;;;;;1.00;1.00;;;;;20.60;53.47;99290.00;109261;1269;19248;-73
2023/03/26 04:40:46;;;;;;;;;1.00;1.00;;;;;20.60;53.55;99287.37;109256;1264;22224;-73
2023/03/26 04:43:13;;;;;;;;;1.00;1.00;;;;;20.59;53.46;99283.60;109279;1263;22744;-73
2023/03/26 04:45:40;;;;;;;;;1.00;1.00;;;;;20.59;53.70;99280.04;109341;1256;19568;-75
2023/03/26 04:48:13;;;;;;;;;1.00;1.00;;;;;20.59;53.45;99283.44;109329;1262;20841;-73
2023/03/26 04:50:40;;;;;;;;;1.00;1.00;;;;;20.59;53.52;99280.92;109388;1254;20204;-75
2023/03/26 04:53:07;;;;;;;;;1.00;1.00;;;;;20.59;53.77;99279.79;109390;1254;23371;-72
2023/03/26 04:55:35;;;;;;;;;1.00;1.00;;;;;20.60;53.57;99276.44;109220;1269;19355;-73
2023/03/26 04:58:04;;;;;;;;;1.00;1.00;;;;;20.60;53.63;99271.75;109335;1269;20140;-74
2023/03/26 05:00:31;;;;;;;;;1.00;1.00;;;;;20.59;53.66;99271.25;109306;1256;23385;-74
2023/03/26 05:03:00;;;;;;;;;1.00;1.00;;;;;20.60;53.81;99271.58;109292;1256;20889;-73
2023/03/26 05:05:27;;;;;;;;;1.00;1.00;;;;;20.59;53.68;99268.20;109307;1254;23235;-73
2023/03/26 05:07:54;;;;;;;;;1.00;1.00;;;;;20.59;53.45;99272.55;109258;1269;19192;-73
2023/03/26 05:10:22;;;;;;;;;1.00;1.00;;;;;20.59;53.34;99267.53;109277;1254;20945;-73
2023/03/26 05:12:49;;;;;;;;;1.00;1.00;;;;;20.59;53.54;99269.66;109290;1269;22777;-73
2023/03/26 05:15:16;;;;;;;;;1.00;1.00;;;;;20.59;53.45;99268.83;109259;1269;19162;-73
2023/03/26 05:17:45;;;;;;;;;1.00;1.00;;;;;20.59;53.56;99268.52;109283;1269;22921;-73
2023/03/26 05:20:15;;;;;;;;;1.00;1.00;;;;;20.59;53.52;99266.73;109274;1254;20207;-74
2023/03/26 05:22:43;;;;;;;;;1.00;1.00;;;;;20.59;53.41;99265.27;109304;1256;19224;-73
2023/03/26 05:25:10;;;;;;;;;1.00;1.00;;;;;20.59;53.51;99268.45;109240;1254;19376;-75
2023/03/26 05:27:38;;;;;;;;;1.00;1.00;;;;;20.60;53.56;99270.08;109287;1256;22865;-74
2023/03/26 05:30:06;;;;;;;;;1.00;1.00;;;;;20.64;53.47;99271.16;109287;1254;20839;-74
2023/03/26 05:32:33;;;;;;;;;1.00;1.00;;;;;20.65;53.38;99276.94;109274;1269;23767;-77
2023/03/26 05:35:00;;;;;;;;;1.00;1.00;;;;;20.65;53.59;99273.38;109261;1256;21501;-73
2023/03/26 05:37:29;;;;;;;;;2.00;2.00;;;;;20.64;53.73;99276.94;109298;1254;19038;-75
2023/03/26 05:39:57;;;;;;;;;1.00;1.00;;;;;20.64;53.60;99272.45;109304;1264;19439;-77
2023/03/26 05:42:24;;;;;;;;;1.00;1.00;;;;;20.67;53.51;99275.89;109291;1256;21577;-76
2023/03/26 05:44:52;;;;;;;;;1.00;1.00;;;;;20.67;53.51;99275.88;109282;1254;19514;-76
2023/03/26 05:47:19;;;;;;;;;1.00;1.00;;;;;20.70;53.60;99279.02;109319;1254;19722;-75
2023/03/26 05:49:46;;;;;;;;;1.00;1.00;;;;;20.73;53.62;99286.26;109266;1269;20343;-74
2023/03/26 05:52:17;;;;;;;;;1.00;1.00;;;;;20.73;53.56;99287.59;109260;1254;24241;-74
2023/03/26 05:54:45;;;;;;;;;1.00;1.00;;;;;20.74;53.64;99283.91;109256;1254;24690;-75
2023/03/26 05:57:12;;;;;;;;;1.00;1.00;;;;;20.73;53.58;99279.89;109267;1253;21889;-74
2023/03/26 05:59:40;;;;;;;;;1.00;1.00;;;;;20.72;53.66;99280.69;109251;1254;23577;-76
2023/03/26 06:02:07;;;;;;;;;1.00;1.00;;;;;20.74;53.86;99284.49;109252;1269;20588;-72
2023/03/26 06:04:39;;;;;;;;;1.50;1.50;;;;;20.73;53.80;99286.88;109289;1269;20509;-74
2023/03/26 06:07:08;;;;;;;;;1.00;1.00;;;;;20.74;53.72;99283.20;109269;1269;19060;-72
2023/03/26 06:09:37;;;;;;;;;1.00;1.00;;;;;20.76;53.83;99286.30;109276;1254;19274;-72
2023/03/26 06:12:05;;;;;;;;;1.00;1.00;;;;;20.80;53.86;99289.39;109247;1254;23066;-70
2023/03/26 06:14:32;;;;;;;;;1.00;1.00;;;;;20.83;54.09;99287.20;109305;1256;20807;-73
2023/03/26 06:16:59;;;;;;;;;1.00;1.00;;;;;20.84;54.08;99282.30;109249;1254;23141;-74
2023/03/26 06:19:27;;;;;;;;;1.00;1.00;;;;;20.86;54.22;99282.00;109310;1269;21638;-73
2023/03/26 06:21:54;;;;;;;;;2.00;1.00;;;;;20.90;54.41;99282.45;109325;1269;19288;-69
2023/03/26 06:24:21;;;;;;;;;1.00;1.00;;;;;20.91;54.67;99283.38;109304;1254;20867;-71
2023/03/26 06:26:49;;;;;;;;;1.00;1.00;;;;;20.93;55.12;99285.19;109307;1262;23033;-70
2023/03/26 06:29:16;;;;;;;;;1.00;1.00;;;;;20.95;55.13;99287.02;109370;1269;19176;-69
2023/03/26 06:31:43;;;;;;;;;1.00;1.00;;;;;20.94;55.42;99286.69;109358;1255;21689;-72
2023/03/26 06:34:11;;;;;;;;;1.00;1.00;;;;;20.96;55.54;99287.68;109397;1269;20199;-74
2023/03/26 06:36:38;;;;;;;;;1.00;1.00;;;;;20.97;55.75;99284.61;109338;1256;19392;-73
2023/03/26 06:39:05;;;;;;;;;1.00;1.00;;;;;21.00;55.74;99281.85;109373;1269;19420;-72
2023/03/26 06:41:33;;;;;;;;;1.00;1.00;;;;;21.06;55.72;99287.08;109366;1269;21627;-71
2023/03/26 06:44:00;;;;;;;;;1.00;1.00;;;;;21.04;55.89;99282.96;109326;1254;19643;-76
2023/03/26 06:46:27;;;;;;;;;1.00;1.00;;;;;21.00;55.74;99288.23;109284;1254;19409;-74
2023/03/26 06:48:55;;;;;;;;;1.00;1.00;;;;;21.01;55.97;99285.20;109282;1254;22759;-73
2023/03/26 06:51:22;;;;;;;;;1.00;1.00;;;;;21.02;55.80;99287.67;109312;1254;21046;-74
2023/03/26 06:53:49;;;;;;;;;1.00;1.00;;;;;21.02;56.09;99288.13;109251;1269;20738;-73
2023/03/26 06:56:17;;;;;;;;;1.00;1.00;;;;;21.03;56.04;99289.20;109306;1254;21607;-75
2023/03/26 06:58:44;;;;;;;;;1.00;1.00;;;;;21.02;56.09;99291.23;109288;1269;19105;-74
2023/03/26 07:01:11;;;;;;;;;1.00;1.00;;;;;21.03;56.13;99288.16;109304;1254;20726;-75
2023/03/26 07:03:39;;;;;;;;;;;;;;;21.04;56.33;99283.55;109296;1269;22607;-73
2023/03/26 07:06:06;;;;;;;;;1.00;1.00;;;;;21.00;56.59;99283.32;109336;1262;19463;-73
2023/03/26 07:08:34;;;;;;;;;1.00;1.00;;;;;20.97;56.28;99285.84;109312;1254;21957;-73
2023/03/26 07:11:01;;;;;;;;;2.00;1.00;;;;;20.94;56.51;99284.42;109251;1254;21606;-73
2023/03/26 07:13:28;;;;;;;;;1.00;1.00;;;;;20.91;56.84;99286.81;109309;1254;21307;-73
2023/03/26 07:15:56;;;;;;;;;1.00;1.00;;;;;20.88;56.67;99289.92;109274;1254;23113;-73
2023/03/26 07:18:23;;;;;;;;;1.00;1.00;;;;;20.85;56.63;99288.38;109318;1269;20162;-73
2023/03/26 07:20:50;;;;;;;;;1.00;1.00;;;;;20.83;56.40;99290.31;109293;1269;19574;-73
2023/03/26 07:23:20;;;;;;;;;1.00;1.00;;;;;20.82;56.58;99294.63;109284;1254;20705;-71
2023/03/26 07:25:48;;;;;;;;;1.00;1.00;;;;;20.80;56.17;99306.39;109314;1269;20511;-72
2023/03/26 07:28:16;;;;;;;;;1.00;1.00;;;;;20.79;56.10;99314.19;109280;1254;23648;-71
2023/03/26 07:30:43;;;;;;;;;1.00;1.00;;;;;20.79;56.17;99319.51;109304;1269;20840;-72
2023/03/26 07:33:10;;;;;;;;;1.00;1.00;;;;;20.77;56.00;99320.77;109267;1255;21570;-72
2023/03/26 07:35:38;;;;;;;;;1.00;1.00;;;;;20.78;56.01;99321.81;109298;1264;19183;-72
2023/03/26 07:38:05;;;;;;;;;1.00;1.00;;;;;20.78;55.97;99316.33;109307;1264;20932;-72
2023/03/26 07:40:32;;;;;;;;;1.00;1.00;;;;;20.79;55.96;99319.09;109328;1269;20193;-72
2023/03/26 07:43:00;;;;;;;;;1.50;1.00;;;;;20.79;55.91;99319.02;109303;1269;19187;-73
2023/03/26 07:45:27;;;;;;;;;1.00;1.00;;;;;20.78;55.83;99317.59;109318;1269;19395;-72
2023/03/26 07:47:55;;;;;;;;;1.00;1.00;;;;;20.77;55.80;99321.57;109306;1269;20552;-72
2023/03/26 07:50:23;;;;;;;;;1.00;1.00;;;;;20.77;55.58;99317.63;109296;1269;23032;-72
2023/03/26 07:52:50;;;;;;;;;1.00;1.00;;;;;20.79;55.51;99319.25;109273;1254;22152;-72
2023/03/26 07:55:18;;;;;;;;;1.00;1.00;;;;;20.80;55.52;99316.02;109280;1254;21593;-72
2023/03/26 07:57:46;;;;;;;;;1.00;1.00;;;;;20.84;55.31;99317.59;109347;1254;20740;-72
2023/03/26 08:00:14;;;;;;;;;1.00;1.00;;;;;20.91;55.33;99320.96;109308;1269;19406;-72
2023/03/26 08:02:42;;;;;;;;;1.00;1.00;;;;;20.97;55.03;99317.73;109349;1269;22460;-72
2023/03/26 08:05:09;;;;;;;;;1.00;1.00;;;;;21.03;54.74;99323.45;109338;1269;19638;-72
2023/03/26 08:07:38;;;;;;;;;1.00;1.00;;;;;21.01;54.93;99319.85;109303;1254;22061;-73
2023/03/26 08:10:05;;;;;;;;;1.00;1.00;;;;;21.03;54.85;99322.28;109353;1254;22902;-72
2023/03/26 08:12:33;;;;;;;;;1.00;1.00;;;;;21.07;54.83;99319.09;109331;1264;19295;-72
2023/03/26 08:15:00;;;;;;;;;2.00;2.00;;;;;21.12;54.95;99322.55;109284;1256;20794;-72
2023/03/26 08:17:27;;;;;;;;;1.00;1.00;;;;;21.17;55.22;99324.01;109310;1256;21651;-72
2023/03/26 08:19:56;;;;;;;;;1.00;1.00;;;;;21.16;55.17;99325.46;109297;1269;19252;-72
2023/03/26 08:22:26;;;;;;;;;1.00;1.00;;;;;21.14;55.12;99324.44;109316;1254;20787;-72
2023/03/26 08:24:53;;;;;;;;;1.00;1.00;;;;;21.12;55.19;99326.21;109236;1269;172974;-72
2023/03/26 08:27:21;;;;;;;;;1.00;1.00;;;;;21.10;55.13;99325.40;109336;1254;23034;-72
2023/03/26 08:29:49;;;;;;;;;1.00;1.00;;;;;21.06;55.17;99326.77;109318;1264;19416;-72
2023/03/26 08:32:16;;;;;;;;;1.00;1.00;;;;;21.03;55.35;99328.69;109264;1256;21673;-71
2023/03/26 08:34:43;;;;;;;;;1.00;1.00;;;;;21.01;55.34;99327.90;109268;1256;19779;-71
2023/03/26 08:37:11;;;;;;;;;1.00;1.00;;;;;20.98;55.53;99325.71;109363;1256;20682;-72
2023/03/26 08:39:38;;;;;;;;;1.00;1.00;;;;;20.98;55.52;99328.90;109328;1269;20195;-73
2023/03/26 08:42:06;;;;;;;;;1.50;1.50;;;;;20.98;55.50;99324.45;109306;1269;20879;-75
2023/03/26 08:44:33;;;;;;;;;1.00;1.00;;;;;21.01;55.49;99329.50;109330;1256;18969;-73
2023/03/26 08:47:01;;;;;;;;;;;;;;;21.04;55.85;99328.94;109332;1261;21621;-74
2023/03/26 08:49:28;;;;;;;;;22.33;17.33;;;;;21.05;56.11;99333.55;109307;1263;19751;-75
2023/03/26 08:51:55;;;;;;;;;130.00;101.50;;;;;21.06;56.20;99332.04;109283;1254;21987;-75
2023/03/26 08:54:23;;;;;;;;;149.33;112.33;;;;;21.06;56.77;99335.48;109308;1269;21520;-74
2023/03/26 08:56:50;;;;;;;;;92.00;68.00;;;;;21.07;56.88;99334.05;109307;1255;20357;-73
2023/03/26 08:59:18;;;;;;;;;98.50;72.50;;;;;21.05;56.11;99342.39;109291;1269;20888;-73
2023/03/26 09:01:45;;;;;;;;;95.00;69.00;;;;;21.04;56.03;99338.83;109307;1254;21579;-74
2023/03/26 09:04:12;;;;;;;;;86.00;63.00;;;;;21.05;55.98;99343.39;109321;1256;19149;-73
2023/03/26 09:06:40;;;;;;;;;78.00;59.00;;;;;21.07;56.10;99343.77;109297;1254;19534;-74
2023/03/26 09:09:07;;;;;;;;;70.00;52.00;;;;;21.06;56.23;99349.64;109296;1269;21771;-73
2023/03/26 09:11:34;;;;;;;;;64.50;51.00;;;;;21.07;56.27;99345.54;109265;1269;20360;-75
2023/03/26 09:14:02;;;;;;;;;61.00;43.00;;;;;21.10;56.37;99347.56;109254;1254;23488;-75
2023/03/26 09:16:29;;;;;;;;;39.50;36.50;;;;;21.09;56.34;99345.64;109261;1269;20262;-74
2023/03/26 09:18:57;;;;;;;;;43.50;34.50;;;;;21.09;56.45;99350.34;109329;1269;22830;-75
2023/03/26 09:21:25;;;;;;;;;37.00;30.00;;;;;21.10;56.18;99349.37;109300;1262;19544;-73
2023/03/26 09:23:52;;;;;;;;;34.00;29.00;;;;;21.12;56.12;99349.17;109333;1254;21461;-74
2023/03/26 09:26:19;;;;;;;;;36.00;26.00;;;;;21.13;56.19;99356.97;109309;1253;20002;-74
2023/03/26 09:28:49;;;;;;;;;27.00;22.00;;;;;21.12;55.91;99354.87;109310;1254;19501;-76
2023/03/26 09:31:16;;;;;;;;;20.00;20.00;;;;;21.13;55.97;99353.11;109312;1254;21960;-76
2023/03/26 09:33:43;;;;;;;;;21.00;21.00;;;;;21.13;56.27;99354.20;109377;1257;22416;-76
2023/03/26 09:36:11;;;;;;;;;21.00;20.00;;;;;21.16;56.07;99353.14;109327;1269;20940;-76
2023/03/26 09:38:38;;;;;;;;;20.00;15.50;;;;;21.17;56.12;99350.08;109320;1269;21509;-75
2023/03/26 09:41:05;;;;;;;;;20.00;17.00;;;;;21.17;56.12;99351.00;109289;1264;19285;-75
2023/03/26 09:43:33;;;;;;;;;20.00;15.00;;;;;21.17;56.29;99352.51;109293;1269;19453;-77
2023/03/26 09:46:00;;;;;;;;;;;;;;;21.18;56.27;99351.13;109291;1269;23522;-77
2023/03/26 09:48:28;;;;;;;;;15.00;14.00;;;;;21.20;56.19;99358.92;109335;1269;20249;-76
2023/03/26 09:50:55;;;;;;;;;15.00;14.00;;;;;21.19;56.28;99356.45;109369;1269;19512;-76
2023/03/26 09:53:22;;;;;;;;;17.00;12.00;;;;;21.21;56.18;99359.50;109303;1269;23661;-77
2023/03/26 09:55:50;;;;;;;;;14.00;13.00;;;;;21.19;56.07;99361.35;109345;1254;21191;-73
2023/03/26 09:58:18;;;;;;;;;;;;;;;21.18;55.58;99356.08;109303;1269;23586;-73
2023/03/26 10:00:45;;;;;;;;;13.00;10.00;;;;;21.13;55.75;99360.11;109322;1269;20173;-78
2023/03/26 10:03:12;;;;;;;;;11.00;8.00;;;;;21.09;55.97;99358.71;109311;1256;19262;-75
2023/03/26 10:05:41;;;;;;;;;10.50;10.00;;;;;21.07;55.96;99357.30;109269;1256;23747;-74
2023/03/26 10:08:08;;;;;;;;;10.00;10.00;;;;;21.07;55.68;99364.22;109304;1269;22809;-76
2023/03/26 10:10:36;;;;;;;;;13.00;10.50;;;;;21.09;55.60;99363.97;109299;1254;23726;-72
2023/03/26 10:13:03;;;;;;;;;7.50;7.50;;;;;21.11;55.64;99369.04;109253;1269;23503;-73
2023/03/26 10:15:30;;;;;;;;;5.00;5.00;;;;;21.10;55.70;99369.70;109331;1263;20193;-72
2023/03/26 10:17:58;;;;;;;;;7.00;7.00;;;;;21.12;56.03;99364.94;109286;1254;19738;-72
2023/03/26 10:20:25;;;;;;;;;7.00;6.00;;;;;21.09;55.88;99366.02;109274;1254;19383;-73
2023/03/26 10:22:52;;;;;;;;;8.00;7.00;;;;;21.06;55.92;99363.64;109299;1254;23563;-73
2023/03/26 10:25:20;;;;;;;;;6.00;6.00;;;;;21.04;55.90;99365.27;109328;1256;20879;-73
2023/03/26 10:27:47;;;;;;;;;;;;;;;21.01;55.90;99361.97;109267;1269;19399;-72
2023/03/26 10:30:15;;;;;;;;;7.00;5.00;;;;;21.00;55.96;99362.65;109332;1269;23123;-72
2023/03/26 10:32:44;;;;;;;;;4.00;4.00;;;;;21.01;56.06;99357.53;109296;1256;19302;-72
2023/03/26 10:35:11;;;;;;;;;5.00;5.00;;;;;21.00;55.76;99358.20;109349;1269;20820;-72
2023/03/26 10:37:39;;;;;;;;;4.00;4.00;;;;;20.99;55.81;99356.14;109351;1254;21707;-72
2023/03/26 10:40:08;;;;;;;;;5.00;4.00;;;;;20.97;55.84;99354.17;109314;1269;19808;-72
2023/03/26 10:42:36;;;;;;;;;4.00;4.00;;;;;20.98;55.80;99356.68;109366;1254;20858;-71
2023/03/26 10:45:03;;;;;;;;;2.00;2.00;;;;;20.95;55.71;99353.02;109324;1256;21983;-73
2023/03/26 10:47:30;;;;;;;;;5.00;5.00;;;;;20.95;55.65;99358.09;109264;1254;22225;-72
2023/03/26 10:49:58;;;;;;;;;2.00;2.00;;;;;20.95;55.41;99355.77;109318;1254;20935;-71
2023/03/26 10:52:25;;;;;;;;;4.50;4.00;;;;;20.95;55.52;99359.05;109310;1269;21495;-71
2023/03/26 10:54:52;;;;;;;;;4.00;4.00;;;;;20.94;55.32;99359.41;109286;1269;19229;-71
2023/03/26 10:57:20;;;;;;;;;2.00;2.00;;;;;20.94;55.51;99362.77;109321;1256;22001;-71
2023/03/26 10:59:47;;;;;;;;;4.00;4.00;;;;;20.95;55.43;99358.92;109274;1269;23503;-72
2023/03/26 11:02:15;;;;;;;;;2.00;2.00;;;;;20.93;55.07;99355.15;109270;1254;19988;-71
2023/03/26 11:04:42;;;;;;;;;3.00;2.00;;;;;20.93;55.10;99358.92;109309;1269;19635;-71
2023/03/26 11:07:10;;;;;;;;;2.00;2.00;;;;;20.94;55.20;99355.02;109304;1269;20178;-72
2023/03/26 11:09:37;;;;;;;;;1.00;1.00;;;;;20.94;55.21;99361.23;109275;1264;22392;-71
2023/03/26 11:12:05;;;;;;;;;4.00;4.00;;;;;20.93;55.15;99362.23;109331;1269;19790;-71
2023/03/26 11:14:32;;;;;;;;;2.00;2.00;;;;;20.93;54.94;99364.83;109300;1269;20167;-71
2023/03/26 11:16:59;;;;;;;;;4.00;4.00;;;;;20.92;55.04;99362.36;109306;1269;19631;-72
2023/03/26 11:19:27;;;;;;;;;2.00;2.00;;;;;20.93;54.99;99362.81;109278;1269;19377;-71
2023/03/26 11:21:54;;;;;;;;;2.00;2.00;;;;;20.92;54.81;99357.41;109301;1269;20192;-72
2023/03/26 11:24:22;;;;;;;;;4.00;4.00;;;;;20.92;54.75;99359.05;109282;1254;19683;-72
2023/03/26 11:26:49;;;;;;;;;7.00;5.00;;;;;20.92;54.83;99364.48;109305;1269;19418;-72